Time;durP1;ratioP1;P1;durP2;ratioP2;P2;SDS_P1;SDS_P2;PMS_P1;PMS_P2;Temp;Humidity;BMP_temperature;BMP_pressure;BME280_temperature;BME280_humidity;BME280_pressure;Samples;Min_cycle;Max_cycle;Signal;HPM_P1;HPM_P2
2021/07/08 00:01:25;;;;;;;3.97;1.38;;;25.00;66.30;;;;;;5095208;28;20421;-69
2021/07/08 00:03:52;;;;;;;1.90;1.30;;;24.70;67.10;;;;;;5096826;28;20501;-69
2021/07/08 00:06:18;;;;;;;3.63;1.45;;;24.50;67.50;;;;;;5097062;28;20106;-69
2021/07/08 00:08:46;;;;;;;3.03;1.27;;;24.50;67.50;;;;;;5096793;28;20150;-70
2021/07/08 00:11:13;;;;;;;4.57;1.25;;;24.50;67.20;;;;;;5096800;28;20420;-71
2021/07/08 00:13:46;;;;;;;1.77;1.20;;;24.50;66.60;;;;;;5096920;28;20403;-70
2021/07/08 00:16:12;;;;;;;2.13;1.23;;;24.50;67.20;;;;;;5096732;28;20038;-70
2021/07/08 00:18:38;;;;;;;5.32;1.10;;;24.50;66.30;;;;;;5096753;28;20028;-70
2021/07/08 00:21:07;;;;;;;2.28;1.40;;;24.50;66.30;;;;;;5096543;28;20028;-70
2021/07/08 00:23:32;;;;;;;4.50;1.50;;;24.50;66.00;;;;;;5097012;28;20031;-70
2021/07/08 00:25:58;;;;;;;2.55;1.70;;;24.50;66.90;;;;;;5096922;28;20308;-70
2021/07/08 00:28:24;;;;;;;2.92;1.40;;;24.60;66.90;;;;;;5096414;28;20024;-70
2021/07/08 00:30:51;;;;;;;4.90;1.48;;;24.60;67.20;;;;;;5096698;28;20093;-70
2021/07/08 00:33:17;;;;;;;3.72;1.67;;;24.50;67.20;;;;;;5078826;28;20016;-70
2021/07/08 00:35:44;;;;;;;5.10;1.40;;;24.50;67.10;;;;;;5096739;28;20028;-70
2021/07/08 00:38:13;;;;;;;2.72;1.58;;;24.40;67.50;;;;;;5096588;28;20032;-70
2021/07/08 00:40:38;;;;;;;1.90;1.30;;;24.40;67.90;;;;;;5078526;28;20119;-70
2021/07/08 00:43:04;;;;;;;3.15;1.70;;;24.40;68.00;;;;;;5096757;28;20107;-70
2021/07/08 00:45:30;;;;;;;2.03;1.40;;;24.30;68.10;;;;;;5096284;28;20058;-70
2021/07/08 00:47:56;;;;;;;1.75;1.00;;;24.20;68.30;;;;;;5096175;28;20060;-70
2021/07/08 00:50:48;;;;;;;2.15;1.35;;;24.20;68.50;;;;;;5096499;28;20029;-70
2021/07/08 00:53:16;;;;;;;1.88;1.30;;;24.10;68.20;;;;;;5092832;28;20071;-70
2021/07/08 00:55:44;;;;;;;3.22;1.20;;;24.10;68.10;;;;;;5096685;28;20088;-71
2021/07/08 00:58:11;;;;;;;2.33;1.60;;;24.00;68.30;;;;;;5096349;28;20028;-71
2021/07/08 01:00:37;;;;;;;4.63;1.50;;;24.10;67.70;;;;;;5096363;28;20028;-72
2021/07/08 01:03:08;;;;;;;3.47;1.42;;;24.10;67.50;;;;;;5096302;28;20412;-70
2021/07/08 01:05:36;;;;;;;2.30;1.38;;;24.10;67.60;;;;;;5096609;28;20031;-70
2021/07/08 01:08:03;;;;;;;2.45;1.30;;;24.20;67.20;;;;;;5096524;28;20028;-70
2021/07/08 01:10:29;;;;;;;2.22;1.50;;;24.20;66.90;;;;;;5096582;28;20031;-70
2021/07/08 01:12:55;;;;;;;2.13;1.40;;;24.30;67.00;;;;;;5098388;28;20103;-70
2021/07/08 01:15:21;;;;;;;3.13;1.20;;;24.30;66.70;;;;;;5100303;28;20496;-70
2021/07/08 01:17:48;;;;;;;3.95;1.30;;;24.30;66.40;;;;;;5099998;28;20031;-69
2021/07/08 01:20:17;;;;;;;2.35;1.38;;;24.30;66.60;;;;;;5100238;28;20329;-69
2021/07/08 01:22:42;;;;;;;4.90;1.60;;;24.30;67.00;;;;;;5100228;28;20297;-69
2021/07/08 01:25:11;;;;;;;3.35;1.42;;;24.30;66.60;;;;;;5099735;28;20031;-70
2021/07/08 01:27:37;;;;;;;2.53;1.20;;;24.30;67.30;;;;;;5099765;28;20497;-69
2021/07/08 01:30:11;;;;;;;3.53;1.50;;;24.40;66.60;;;;;;5099902;28;20028;-69
2021/07/08 01:32:38;;;;;;;2.55;1.77;;;24.40;67.10;;;;;;5099597;28;20047;-69
2021/07/08 01:35:06;;;;;;;3.92;1.55;;;24.40;68.00;;;;;;5099588;28;20020;-70
2021/07/08 01:37:32;;;;;;;2.30;1.52;;;24.20;67.80;;;;;;5099586;28;20035;-70
2021/07/08 01:40:00;;;;;;;2.15;1.38;;;24.20;68.30;;;;;;5099812;28;20036;-70
2021/07/08 01:42:27;;;;;;;3.20;1.48;;;24.20;68.40;;;;;;5099520;28;20034;-70
2021/07/08 01:44:53;;;;;;;4.60;1.35;;;24.20;68.10;;;;;;5099945;28;20038;-70
2021/07/08 01:47:18;;;;;;;2.35;1.40;;;24.10;68.20;;;;;;5099605;28;20032;-70
2021/07/08 01:49:44;;;;;;;5.60;1.50;;;24.10;68.10;;;;;;5099664;28;20020;-70
2021/07/08 01:52:10;;;;;;;3.78;1.38;;;24.10;67.50;;;;;;5099342;28;20020;-70
2021/07/08 01:54:36;;;;;;;3.45;1.98;;;24.10;67.30;;;;;;5099603;28;20044;-70
2021/07/08 01:57:02;;;;;;;4.43;1.35;;;24.00;66.60;;;;;;5099460;28;20308;-70
2021/07/08 01:59:27;;;;;;;1.63;0.95;;;24.00;66.60;;;;;;5099458;28;20432;-70
2021/07/08 02:01:53;;;;;;;3.97;1.20;;;24.00;66.60;;;;;;5099116;28;20024;-70
2021/07/08 02:04:19;;;;;;;3.42;1.20;;;24.00;66.40;;;;;;5099072;28;20024;-70
2021/07/08 02:06:44;;;;;;;4.20;1.30;;;24.00;66.30;;;;;;5098900;28;20020;-70
2021/07/08 02:09:10;;;;;;;4.45;1.17;;;24.10;66.00;;;;;;5099315;28;20020;-70
2021/07/08 02:11:37;;;;;;;3.05;1.50;;;24.10;66.20;;;;;;5099311;28;20027;-70
2021/07/08 02:14:03;;;;;;;1.85;1.02;;;24.20;66.10;;;;;;5099284;28;20032;-70
2021/07/08 02:16:28;;;;;;;2.55;0.95;;;24.10;66.50;;;;;;5099181;28;20028;-70
2021/07/08 02:18:55;;;;;;;2.15;1.65;;;24.00;66.40;;;;;;5098835;28;20029;-70
2021/07/08 02:21:20;;;;;;;3.28;1.05;;;24.00;66.50;;;;;;5098791;28;20017;-70
2021/07/08 02:23:46;;;;;;;1.95;0.82;;;24.00;66.10;;;;;;5097817;28;20031;-70
2021/07/08 02:26:12;;;;;;;2.55;1.17;;;24.00;65.90;;;;;;5098614;28;20028;-70
2021/07/08 02:28:39;;;;;;;1.58;0.98;;;24.00;65.90;;;;;;5098870;28;20039;-70
2021/07/08 02:31:05;;;;;;;4.68;1.42;;;24.10;65.70;;;;;;5098408;28;20036;-70
2021/07/08 02:33:32;;;;;;;3.13;1.40;;;24.10;65.10;;;;;;5098534;28;20024;-70
2021/07/08 02:35:58;;;;;;;4.35;1.27;;;24.20;65.30;;;;;;5098775;28;20070;-70
2021/07/08 02:38:24;;;;;;;3.60;0.98;;;24.30;64.90;;;;;;5098743;28;20437;-70
2021/07/08 02:40:50;;;;;;;2.35;1.20;;;24.30;65.10;;;;;;5098717;28;20032;-70
2021/07/08 02:43:16;;;;;;;4.82;1.00;;;24.20;65.70;;;;;;5098403;28;20039;-70
2021/07/08 02:45:43;;;;;;;2.65;1.10;;;24.20;65.50;;;;;;5098566;28;20032;-70
2021/07/08 02:48:11;;;;;;;3.08;1.10;;;24.10;66.10;;;;;;5098471;28;20024;-70
2021/07/08 02:50:41;;;;;;;3.38;1.05;;;24.00;66.40;;;;;;5098190;28;20055;-70
2021/07/08 02:53:08;;;;;;;6.05;1.20;;;23.90;65.80;;;;;;5080260;28;20035;-70
2021/07/08 02:55:34;;;;;;;2.08;1.13;;;23.90;66.30;;;;;;5098385;28;20024;-70
2021/07/08 02:57:59;;;;;;;4.20;1.05;;;23.90;66.50;;;;;;5098069;28;20431;-70
2021/07/08 03:00:26;;;;;;;1.80;0.95;;;23.80;66.50;;;;;;5097999;28;20028;-70
2021/07/08 03:02:53;;;;;;;1.90;1.10;;;23.80;66.70;;;;;;5098268;28;20024;-70
2021/07/08 03:05:18;;;;;;;1.45;0.98;;;23.70;66.40;;;;;;5097692;28;20430;-70
2021/07/08 03:07:44;;;;;;;1.40;0.98;;;23.70;66.60;;;;;;5097762;28;20028;-70
2021/07/08 03:10:13;;;;;;;1.95;1.10;;;23.60;66.80;;;;;;5098126;28;20312;-70
2021/07/08 03:12:39;;;;;;;1.95;1.00;;;23.50;67.00;;;;;;5098065;28;20024;-70
2021/07/08 03:15:07;;;;;;;2.90;1.25;;;23.40;67.00;;;;;;5097595;28;20043;-70
2021/07/08 03:17:32;;;;;;;2.15;1.00;;;23.40;67.20;;;;;;5097668;28;20060;-70
2021/07/08 03:19:59;;;;;;;2.50;1.10;;;23.30;67.10;;;;;;5097974;28;20059;-69
2021/07/08 03:22:24;;;;;;;3.30;1.10;;;23.30;67.30;;;;;;5097557;28;20416;-69
2021/07/08 03:24:50;;;;;;;2.28;1.00;;;23.30;67.00;;;;;;5097571;28;20031;-69
2021/07/08 03:27:16;;;;;;;4.40;1.02;;;23.40;66.70;;;;;;5097394;28;20063;-69
2021/07/08 03:29:41;;;;;;;2.40;0.80;;;23.40;66.50;;;;;;5097749;28;20016;-69
2021/07/08 03:32:08;;;;;;;3.53;1.10;;;23.50;66.50;;;;;;5097331;28;20432;-71
2021/07/08 03:34:34;;;;;;;1.55;1.25;;;23.50;66.80;;;;;;5097677;28;20020;-70
2021/07/08 03:37:01;;;;;;;2.20;0.80;;;23.50;66.30;;;;;;5097535;28;20048;-70
2021/07/08 03:39:27;;;;;;;2.40;1.00;;;23.50;66.90;;;;;;5097294;28;20028;-70
2021/07/08 03:41:52;;;;;;;4.40;1.60;;;23.50;66.70;;;;;;5097602;28;20032;-70
2021/07/08 03:44:18;;;;;;;2.35;0.88;;;23.40;67.30;;;;;;5097523;28;20302;-70
2021/07/08 03:46:44;;;;;;;9.77;2.58;;;23.30;67.40;;;;;;5097353;28;20028;-70
2021/07/08 03:49:09;;;;;;;1.77;0.90;;;23.20;67.40;;;;;;5097471;28;20017;-70
2021/07/08 03:51:35;;;;;;;3.13;1.20;;;23.10;67.30;;;;;;5097439;28;20035;-70
2021/07/08 03:54:01;;;;;;;1.23;0.93;;;23.10;67.90;;;;;;5097022;28;20106;-70
2021/07/08 03:56:26;;;;;;;3.45;1.10;;;23.00;68.10;;;;;;5097342;28;20028;-70
2021/07/08 03:58:52;;;;;;;2.30;1.02;;;23.00;68.20;;;;;;5097302;28;20095;-70
2021/07/08 04:01:18;;;;;;;5.85;1.05;;;22.90;68.20;;;;;;5096986;28;20465;-70
2021/07/08 04:03:43;;;;;;;3.10;0.90;;;22.90;68.70;;;;;;5097249;28;20016;-70
2021/07/08 04:06:09;;;;;;;2.63;1.10;;;22.90;68.10;;;;;;5097191;28;20360;-70
2021/07/08 04:08:35;;;;;;;3.25;1.42;;;22.90;68.80;;;;;;5097103;28;20085;-70
2021/07/08 04:11:00;;;;;;;3.80;1.00;;;22.80;68.70;;;;;;5097167;28;20032;-70
2021/07/08 04:13:27;;;;;;;2.03;0.98;;;22.80;68.90;;;;;;5097110;28;20024;-70
2021/07/08 04:15:53;;;;;;;1.58;0.85;;;22.80;68.60;;;;;;5097111;28;20028;-70
2021/07/08 04:18:20;;;;;;;2.13;0.85;;;22.80;68.60;;;;;;5097060;28;20024;-70
2021/07/08 04:20:46;;;;;;;2.10;1.13;;;22.80;68.80;;;;;;5096775;28;20024;-70
2021/07/08 04:23:13;;;;;;;4.78;1.10;;;22.80;69.10;;;;;;5096999;28;20028;-70
2021/07/08 04:25:39;;;;;;;1.27;0.98;;;22.90;69.00;;;;;;5096612;28;20032;-70
2021/07/08 04:28:06;;;;;;;1.90;0.90;;;22.90;69.20;;;;;;5096867;28;20115;-70
2021/07/08 04:30:33;;;;;;;5.45;0.90;;;23.00;69.10;;;;;;5096431;28;20409;-70
2021/07/08 04:33:00;;;;;;;2.20;0.80;;;23.00;69.30;;;;;;5096929;28;20032;-70
2021/07/08 04:35:35;;;;;;;4.88;1.13;;;22.90;69.50;;;;;;5096884;28;20286;-71
2021/07/08 04:38:01;;;;;;;5.50;0.93;;;22.90;69.00;;;;;;5096941;28;20028;-71
2021/07/08 04:40:27;;;;;;;3.40;0.93;;;22.90;69.30;;;;;;5096847;28;20032;-71
2021/07/08 04:42:53;;;;;;;5.10;1.25;;;23.00;69.60;;;;;;5096492;28;20107;-71
2021/07/08 04:45:20;;;;;;;3.00;0.93;;;23.00;69.40;;;;;;5096496;28;20483;-70
2021/07/08 04:47:47;;;;;;;3.35;1.10;;;23.10;69.20;;;;;;5098567;28;20028;-70
2021/07/08 04:50:18;;;;;;;2.90;1.23;;;23.20;69.10;;;;;;5100846;28;20082;-70
2021/07/08 04:52:45;;;;;;;3.83;1.10;;;23.30;69.70;;;;;;5100537;28;20412;-70
2021/07/08 04:55:12;;;;;;;3.80;1.02;;;23.50;68.70;;;;;;5100718;28;20024;-70
2021/07/08 04:57:38;;;;;;;1.63;0.90;;;23.60;68.40;;;;;;5100417;28;20032;-70
2021/07/08 05:00:06;;;;;;;3.97;1.23;;;23.70;68.90;;;;;;5100335;28;20078;-70
2021/07/08 05:02:32;;;;;;;3.55;1.02;;;23.80;68.80;;;;;;5082448;28;20024;-71
2021/07/08 05:04:58;;;;;;;3.10;1.30;;;23.90;68.50;;;;;;5100614;28;20032;-70
2021/07/08 05:07:23;;;;;;;5.40;1.10;;;24.00;68.60;;;;;;5100406;28;20023;-70
2021/07/08 05:09:49;;;;;;;2.17;1.00;;;24.10;68.00;;;;;;5100484;28;20098;-70
2021/07/08 05:12:15;;;;;;;2.00;1.10;;;24.10;68.70;;;;;;5100407;28;20449;-70
2021/07/08 05:14:41;;;;;;;4.32;1.00;;;24.10;68.60;;;;;;5100538;28;20316;-71
2021/07/08 05:17:06;;;;;;;1.55;1.00;;;24.10;68.30;;;;;;5099998;28;20090;-70
2021/07/08 05:19:32;;;;;;;1.98;1.10;;;24.10;68.90;;;;;;5099976;28;20024;-71
2021/07/08 05:22:01;;;;;;;2.10;0.90;;;24.20;69.00;;;;;;5100239;28;20040;-70
2021/07/08 05:24:28;;;;;;;3.63;1.05;;;24.30;69.90;;;;;;5100193;28;20091;-70
2021/07/08 05:26:54;;;;;;;2.65;1.30;;;24.40;69.70;;;;;;5100038;28;20042;-70
2021/07/08 05:29:23;;;;;;;1.48;0.98;;;24.60;69.10;;;;;;5100126;28;20027;-70
2021/07/08 05:31:50;;;;;;;7.07;1.30;;;24.70;68.40;;;;;;5099711;28;20392;-70
2021/07/08 05:34:16;;;;;;;2.85;1.00;;;24.70;68.20;;;;;;5099991;28;20367;-70
2021/07/08 05:36:42;;;;;;;1.40;1.00;;;24.70;67.90;;;;;;5099945;28;20055;-70
2021/07/08 05:39:08;;;;;;;3.72;1.13;;;24.60;68.20;;;;;;5099618;28;20024;-71
2021/07/08 05:41:34;;;;;;;1.80;1.10;;;24.50;69.00;;;;;;5099927;28;20080;-70
2021/07/08 05:43:59;;;;;;;2.20;1.20;;;24.60;68.50;;;;;;5099906;28;20354;-70
2021/07/08 05:46:26;;;;;;;2.30;1.10;;;24.60;67.20;;;;;;5099689;28;20385;-70
2021/07/08 05:48:53;;;;;;;1.60;1.00;;;24.50;68.10;;;;;;5099455;28;20051;-70
2021/07/08 05:51:18;;;;;;;2.67;1.10;;;24.50;68.50;;;;;;5099422;28;20028;-70
2021/07/08 05:53:44;;;;;;;4.95;1.10;;;24.60;68.50;;;;;;5099647;28;20027;-70
2021/07/08 05:56:10;;;;;;;1.83;1.20;;;24.80;69.30;;;;;;5099340;28;20431;-70
2021/07/08 05:58:35;;;;;;;1.73;0.93;;;25.10;69.50;;;;;;5097993;28;20028;-70
2021/07/08 06:01:01;;;;;;;3.83;1.05;;;25.50;67.50;;;;;;5099384;28;20028;-71
2021/07/08 06:03:27;;;;;;;4.28;1.08;;;25.80;68.00;;;;;;5099464;28;20419;-70
2021/07/08 06:05:52;;;;;;;4.00;1.30;;;26.20;68.00;;;;;;5099107;28;20047;-70
2021/07/08 06:08:18;;;;;;;2.35;1.17;;;26.50;67.30;;;;;;5099329;28;20028;-70
2021/07/08 06:10:44;;;;;;;1.30;1.10;;;26.60;65.80;;;;;;5099304;28;20031;-70
2021/07/08 06:13:10;;;;;;;2.00;1.30;;;26.60;66.20;;;;;;5099034;28;20052;-70
2021/07/08 06:15:36;;;;;;;1.92;1.10;;;26.70;64.30;;;;;;5098923;28;20052;-70
2021/07/08 06:18:02;;;;;;;2.80;1.25;;;26.70;66.80;;;;;;5099220;28;20063;-71
2021/07/08 06:20:29;;;;;;;2.53;1.00;;;26.80;70.50;;;;;;5099160;28;20301;-70
2021/07/08 06:22:55;;;;;;;3.22;1.02;;;27.00;71.40;;;;;;5099073;28;20034;-70
2021/07/08 06:25:21;;;;;;;2.53;1.30;;;27.10;70.00;;;;;;5098692;28;20119;-70
2021/07/08 06:27:46;;;;;;;3.97;1.30;;;27.10;70.10;;;;;;5098957;28;20066;-71
2021/07/08 06:30:12;;;;;;;2.38;1.23;;;27.00;70.00;;;;;;5098941;28;20031;-71
2021/07/08 06:32:38;;;;;;;4.55;1.33;;;26.90;70.10;;;;;;5098477;28;20064;-71
2021/07/08 06:35:07;;;;;;;3.47;1.30;;;26.90;68.00;;;;;;5098823;28;20060;-70
2021/07/08 06:37:33;;;;;;;2.72;1.17;;;26.80;66.70;;;;;;5098513;28;20031;-70
2021/07/08 06:39:59;;;;;;;1.52;1.20;;;26.80;67.30;;;;;;5098772;28;20028;-71
2021/07/08 06:42:24;;;;;;;1.70;0.90;;;26.80;65.50;;;;;;5098418;28;20298;-71
2021/07/08 06:44:50;;;;;;;1.45;1.17;;;26.70;66.00;;;;;;5098866;28;20051;-70
2021/07/08 06:47:18;;;;;;;2.22;1.20;;;26.60;66.30;;;;;;5098498;28;20039;-71
2021/07/08 06:49:44;;;;;;;2.83;1.02;;;26.70;65.70;;;;;;5098227;28;20416;-71
2021/07/08 06:52:11;;;;;;;3.97;1.25;;;27.00;66.10;;;;;;5098211;28;20443;-71
2021/07/08 06:54:37;;;;;;;3.05;1.15;;;27.40;64.80;;;;;;5098490;28;20348;-71
2021/07/08 06:57:03;;;;;;;3.05;1.33;;;27.80;64.10;;;;;;5098383;28;20035;-71
2021/07/08 06:59:29;;;;;;;2.30;1.20;;;27.90;63.00;;;;;;5098393;28;20074;-71
2021/07/08 07:01:55;;;;;;;2.53;0.90;;;28.00;63.10;;;;;;5098334;28;20024;-71
2021/07/08 07:04:21;;;;;;;3.55;1.30;;;28.00;62.50;;;;;;5098280;28;20032;-70
2021/07/08 07:06:47;;;;;;;3.28;1.00;;;28.10;62.20;;;;;;5098105;28;20063;-71
2021/07/08 07:09:13;;;;;;;2.45;1.15;;;27.90;62.30;;;;;;5098160;28;20031;-70
2021/07/08 07:11:39;;;;;;;2.15;1.00;;;27.90;63.90;;;;;;5097781;28;20016;-71
2021/07/08 07:14:05;;;;;;;1.13;0.93;;;28.80;64.60;;;;;;5097681;28;20409;-71
2021/07/08 07:16:31;;;;;;;3.15;1.02;;;29.20;60.50;;;;;;5098018;28;20026;-70
2021/07/08 07:18:57;;;;;;;2.00;1.10;;;29.60;60.10;;;;;;5098008;28;20023;-70
2021/07/08 07:21:23;;;;;;;1.48;0.85;;;30.10;59.90;;;;;;5097983;28;20104;-70
2021/07/08 07:23:49;;;;;;;1.15;0.82;;;30.60;56.50;;;;;;5097901;28;20137;-70
2021/07/08 07:26:21;;;;;;;2.40;1.10;;;31.20;56.70;;;;;;5097890;28;20126;-70
2021/07/08 07:28:48;;;;;;;3.55;1.02;;;31.70;56.50;;;;;;5097774;28;20028;-70
2021/07/08 07:31:13;;;;;;;1.92;1.05;;;32.30;54.80;;;;;;5097494;28;20074;-71
2021/07/08 07:33:42;;;;;;;1.80;1.10;;;33.00;54.70;;;;;;5097414;28;20051;-71
2021/07/08 07:36:07;;;;;;;1.40;1.05;;;33.60;53.10;;;;;;5097374;28;20031;-71
2021/07/08 07:38:33;;;;;;;4.60;1.20;;;34.20;54.00;;;;;;5097666;28;20028;-71
2021/07/08 07:40:59;;;;;;;2.40;0.90;;;34.80;51.70;;;;;;5097625;28;20020;-71
2021/07/08 07:43:24;;;;;;;1.38;0.80;;;34.80;52.10;;;;;;5097419;28;20320;-71
2021/07/08 07:45:50;;;;;;;2.88;1.20;;;34.40;50.60;;;;;;5097250;28;20082;-71
2021/07/08 07:48:18;;;;;;;2.97;1.00;;;33.90;52.60;;;;;;5097423;28;20257;-71
2021/07/08 07:50:44;;;;;;;2.83;1.00;;;33.80;55.90;;;;;;5097498;28;20024;-71
2021/07/08 07:53:09;;;;;;;4.47;1.13;;;32.90;55.80;;;;;;5097414;28;20316;-71
2021/07/08 07:55:35;;;;;;;2.42;1.30;;;32.00;59.40;;;;;;5097394;28;20099;-71
2021/07/08 07:58:02;;;;;;;2.17;1.00;;;31.10;59.10;;;;;;5097364;28;20404;-71
2021/07/08 08:00:30;;;;;;;2.20;1.05;;;30.30;63.30;;;;;;5096954;28;20024;-71
2021/07/08 08:02:56;;;;;;;3.58;0.95;;;29.70;64.40;;;;;;5097287;28;20062;-71
2021/07/08 08:10:42;;;;;;;1.90;1.25;;;28.00;68.50;;;;;;5097430;28;20055;-70
2021/07/08 08:13:09;;;;;;;1.73;1.10;;;27.70;70.40;;;;;;5096856;28;20384;-71
2021/07/08 08:15:35;;;;;;;2.28;1.02;;;27.60;70.20;;;;;;5097100;28;20293;-71
2021/07/08 08:18:01;;;;;;;2.15;1.40;;;27.40;70.70;;;;;;5097083;28;20031;-71
2021/07/08 08:20:28;;;;;;;3.35;1.33;;;27.40;71.00;;;;;;5096781;28;20044;-71
2021/07/08 08:22:54;;;;;;;3.30;1.30;;;27.50;71.30;;;;;;5096236;28;20297;-71
2021/07/08 08:25:20;;;;;;;2.50;1.20;;;27.40;68.50;;;;;;5096967;28;20028;-71
2021/07/08 08:27:46;;;;;;;3.67;1.50;;;27.70;66.70;;;;;;5096614;28;20035;-71
2021/07/08 08:30:13;;;;;;;1.75;1.17;;;28.00;67.40;;;;;;5096953;28;20020;-71
2021/07/08 08:32:42;;;;;;;1.73;0.90;;;28.50;66.10;;;;;;5096498;28;20047;-71
2021/07/08 08:35:09;;;;;;;3.00;1.02;;;28.80;63.20;;;;;;5096555;28;20412;-71
2021/07/08 08:37:35;;;;;;;4.75;1.10;;;28.40;63.10;;;;;;5096923;28;20149;-71
2021/07/08 08:40:04;;;;;;;2.53;1.30;;;27.90;64.00;;;;;;5096856;28;20545;-71
2021/07/08 08:42:30;;;;;;;5.18;1.10;;;27.30;65.30;;;;;;5096429;28;20038;-70
2021/07/08 08:44:56;;;;;;;3.80;1.17;;;26.80;65.50;;;;;;5096478;28;20024;-71
2021/07/08 08:47:23;;;;;;;3.60;1.20;;;26.30;67.30;;;;;;5096359;28;20047;-70
2021/07/08 08:49:52;;;;;;;1.95;1.10;;;26.10;67.10;;;;;;5096426;28;20020;-71
2021/07/08 08:52:19;;;;;;;1.98;1.30;;;26.00;67.70;;;;;;5096757;28;20035;-70
2021/07/08 08:54:44;;;;;;;2.55;1.10;;;26.00;70.00;;;;;;5096754;28;20031;-70
2021/07/08 08:57:10;;;;;;;2.35;1.20;;;25.90;72.00;;;;;;5096397;28;20320;-70
2021/07/08 08:59:36;;;;;;;4.75;1.25;;;25.80;68.30;;;;;;5096722;28;20044;-70
2021/07/08 09:02:19;;;;;;;2.42;1.40;;;25.90;66.90;;;;;;5096361;28;20086;-70
2021/07/08 09:04:50;;;;;;;2.55;1.20;;;26.20;71.40;;;;;;5096389;28;20024;-69
2021/07/08 09:07:35;;;;;;;7.53;1.55;;;26.40;73.20;;;;;;5096575;28;20042;-69
2021/07/08 09:10:09;;;;;;;3.67;1.40;;;26.70;71.10;;;;;;5096613;28;20035;-70
2021/07/08 09:12:35;;;;;;;6.22;2.00;;;26.90;73.00;;;;;;5096612;28;20073;-70
2021/07/08 09:15:16;;;;;;;2.75;1.45;;;27.20;71.80;;;;;;5096714;28;20047;-70
2021/07/08 09:17:43;;;;;;;3.92;1.48;;;27.70;71.90;;;;;;5096566;28;20048;-71
2021/07/08 09:20:20;;;;;;;3.17;1.45;;;28.20;70.60;;;;;;5096488;28;20039;-71
2021/07/08 09:22:48;;;;;;;8.45;1.33;;;28.60;68.50;;;;;;5096519;28;20050;-71
2021/07/08 09:25:19;;;;;;;3.33;1.15;;;29.20;66.70;;;;;;5096404;28;20051;-71
2021/07/08 09:27:49;;;;;;;12.55;2.63;;;29.80;64.90;;;;;;5096076;28;20044;-71
2021/07/08 09:30:29;;;;;;;1.13;1.02;;;30.50;61.20;;;;;;5096440;28;20016;-71
2021/07/08 09:32:55;;;;;;;3.28;1.33;;;31.60;64.00;;;;;;5096831;28;20031;-71
2021/07/08 09:35:40;;;;;;;2.20;1.30;;;32.20;63.30;;;;;;5100007;28;20324;-72
2021/07/08 09:38:11;;;;;;;2.60;1.30;;;32.10;60.00;;;;;;5100052;28;20360;-70
2021/07/08 09:40:37;;;;;;;3.47;1.42;;;31.70;60.10;;;;;;5099687;28;20111;-70
2021/07/08 09:43:03;;;;;;;4.57;1.95;;;31.40;61.40;;;;;;5099867;28;20078;-71
2021/07/08 09:45:29;;;;;;;2.97;1.30;;;31.20;62.10;;;;;;5099846;28;20040;-70
2021/07/08 09:48:10;;;;;;;3.08;1.50;;;30.80;65.00;;;;;;5099738;28;20317;-70
2021/07/08 09:50:37;;;;;;;5.75;1.83;;;30.50;64.60;;;;;;5099807;28;20039;-70
2021/07/08 09:53:15;;;;;;;2.65;1.80;;;30.20;66.40;;;;;;5099616;28;20030;-70
2021/07/08 09:58:55;;;;;;;3.83;2.53;;;29.50;67.30;;;;;;5066900;28;20031;-70
2021/07/08 10:01:21;;;;;;;8.23;2.25;;;29.40;64.70;;;;;;5099261;28;20082;-70
2021/07/08 10:03:51;;;;;;;6.20;2.30;;;29.30;66.80;;;;;;5099454;28;20024;-70
2021/07/08 10:06:18;;;;;;;5.25;2.58;;;29.70;66.50;;;;;;5099167;28;20103;-70
2021/07/08 10:08:44;;;;;;;6.18;2.80;;;29.80;66.90;;;;;;5099335;28;20028;-70
2021/07/08 10:11:15;;;;;;;6.82;2.83;;;29.60;65.70;;;;;;5099379;28;20069;-70
2021/07/08 10:13:43;;;;;;;7.45;2.83;;;29.50;66.70;;;;;;5099340;28;20024;-70
2021/07/08 10:16:12;;;;;;;6.03;2.20;;;29.20;65.30;;;;;;5098935;28;20036;-70
2021/07/08 10:18:40;;;;;;;8.77;2.30;;;29.00;69.00;;;;;;5098264;28;20035;-70
2021/07/08 10:21:06;;;;;;;5.45;2.70;;;28.90;70.40;;;;;;5110167;28;20031;-70
2021/07/08 10:23:35;;;;;;;5.85;2.20;;;28.60;67.80;;;;;;5119507;28;20311;-70
2021/07/08 10:26:03;;;;;;;6.20;2.50;;;28.30;70.00;;;;;;5119439;28;20035;-70
2021/07/08 10:28:30;;;;;;;7.32;2.72;;;28.00;70.80;;;;;;5119348;28;20031;-70
2021/07/08 10:30:57;;;;;;;4.93;2.13;;;27.80;71.00;;;;;;5118892;28;20043;-70
2021/07/08 10:33:23;;;;;;;8.00;2.17;;;27.70;73.90;;;;;;5119355;28;20304;-70
2021/07/08 10:35:54;;;;;;;6.82;2.78;;;27.80;75.70;;;;;;5119239;28;20077;-70
2021/07/08 10:38:31;;;;;;;8.35;2.72;;;28.40;73.20;;;;;;5119259;28;20019;-70
2021/07/08 10:40:59;;;;;;;6.32;3.08;;;28.90;70.00;;;;;;5119153;28;20261;-70
2021/07/08 10:43:42;;;;;;;5.32;2.53;;;29.80;68.00;;;;;;5118930;28;20114;-71
2021/07/08 10:46:10;;;;;;;3.25;2.72;;;30.60;65.80;;;;;;5118269;28;20036;-71
2021/07/08 10:48:50;;;;;;;4.35;2.65;;;31.30;64.70;;;;;;5115169;28;20040;-71
2021/07/08 10:51:28;;;;;;;6.43;2.30;;;31.70;64.30;;;;;;5109595;28;20028;-70
2021/07/08 10:53:55;;;;;;;4.00;1.90;;;32.00;65.60;;;;;;5118566;28;20081;-71
2021/07/08 10:56:41;;;;;;;5.57;2.17;;;32.10;63.70;;;;;;5118837;28;20024;-71
2021/07/08 10:59:13;;;;;;;7.68;2.45;;;31.70;62.70;;;;;;5118372;28;20032;-70
2021/07/08 11:01:42;;;;;;;4.20;2.55;;;31.20;65.30;;;;;;5118769;28;20119;-70
2021/07/08 11:04:09;;;;;;;5.70;2.17;;;30.60;64.60;;;;;;5118705;28;20315;-70
2021/07/08 11:06:39;;;;;;;5.18;2.13;;;30.30;66.30;;;;;;5118345;28;20425;-70
2021/07/08 11:09:16;;;;;;;3.88;2.15;;;30.20;67.70;;;;;;5118683;28;20027;-70
2021/07/08 11:11:45;;;;;;;3.60;1.80;;;30.20;67.70;;;;;;5118587;28;20023;-70
2021/07/08 11:14:12;;;;;;;3.80;2.42;;;30.50;67.00;;;;;;5118583;28;20031;-70
2021/07/08 11:16:58;;;;;;;6.35;2.47;;;30.40;66.60;;;;;;5118460;28;20035;-70
2021/07/08 11:19:24;;;;;;;4.93;1.98;;;30.30;66.60;;;;;;5111239;28;20107;-71
2021/07/08 11:21:49;;;;;;;6.35;2.10;;;30.30;66.90;;;;;;5112483;28;20111;-70
2021/07/08 11:24:47;;;;;;;6.00;2.00;;;30.00;67.10;;;;;;5118251;28;20073;-70
2021/07/08 11:27:34;;;;;;;4.43;2.28;;;30.10;67.60;;;;;;5117540;28;20030;-70
2021/07/08 11:30:03;;;;;;;2.35;1.77;;;30.00;66.90;;;;;;5118285;28;20315;-70
2021/07/08 11:32:55;;;;;;;4.88;1.63;;;30.10;68.50;;;;;;5117780;28;20130;-70
2021/07/08 11:38:04;;;;;;;6.45;1.48;;;30.90;67.90;;;;;;5118053;28;20311;-71
2021/07/08 11:40:42;;;;;;;4.45;1.52;;;31.40;62.60;;;;;;5099769;28;20066;-70
2021/07/08 11:43:18;;;;;;;3.38;1.52;;;31.80;62.70;;;;;;5117947;28;20103;-71
2021/07/08 11:45:45;;;;;;;3.58;1.70;;;32.30;64.10;;;;;;5117923;28;20031;-71
2021/07/08 11:48:11;;;;;;;2.53;1.65;;;32.30;67.70;;;;;;5116042;28;20081;-71
2021/07/08 11:50:39;;;;;;;3.60;1.77;;;32.10;65.70;;;;;;5105207;28;20028;-71
2021/07/08 11:53:17;;;;;;;4.70;1.88;;;31.80;65.40;;;;;;5117417;28;20019;-71
2021/07/08 11:55:55;;;;;;;4.55;1.63;;;31.70;66.40;;;;;;5117719;28;20027;-71
2021/07/08 11:58:29;;;;;;;8.63;1.88;;;31.60;62.80;;;;;;5117781;28;20080;-71
2021/07/08 12:00:57;;;;;;;3.63;1.95;;;31.50;67.70;;;;;;5117732;28;20031;-71
2021/07/08 12:03:35;;;;;;;4.43;1.80;;;31.80;65.00;;;;;;5117681;28;20031;-71
2021/07/08 12:06:03;;;;;;;5.00;1.50;;;31.70;62.40;;;;;;5117312;28;20041;-71
2021/07/08 12:08:42;;;;;;;2.33;1.48;;;31.80;63.90;;;;;;5117205;28;20035;-71
2021/07/08 12:11:18;;;;;;;6.15;1.35;;;31.80;63.50;;;;;;5117604;28;20051;-71
2021/07/08 12:14:01;;;;;;;2.58;1.60;;;31.80;60.80;;;;;;5117597;28;20032;-71
2021/07/08 12:16:30;;;;;;;2.65;1.58;;;31.80;62.90;;;;;;5117169;28;20081;-71
2021/07/08 12:18:56;;;;;;;2.45;1.60;;;31.90;63.30;;;;;;5117467;28;20103;-71
2021/07/08 12:21:33;;;;;;;4.45;1.38;;;31.80;62.90;;;;;;5117479;28;20102;-71
2021/07/08 12:24:06;;;;;;;4.75;1.50;;;31.60;65.10;;;;;;5117109;28;20020;-71
2021/07/08 12:26:40;;;;;;;6.22;1.80;;;31.70;63.00;;;;;;5117374;28;20031;-71
2021/07/08 12:29:19;;;;;;;2.17;1.40;;;31.60;63.80;;;;;;5117402;28;20034;-71
2021/07/08 12:31:55;;;;;;;3.67;1.60;;;31.50;62.00;;;;;;5117026;28;20036;-71
2021/07/08 12:34:26;;;;;;;2.03;1.33;;;31.60;62.30;;;;;;5117315;28;20055;-71
2021/07/08 12:36:52;;;;;;;5.47;1.58;;;31.60;64.40;;;;;;5117254;28;20023;-71
2021/07/08 12:39:24;;;;;;;4.97;1.52;;;31.50;60.50;;;;;;5117265;28;20293;-71
2021/07/08 12:41:51;;;;;;;2.03;1.45;;;31.40;63.50;;;;;;5116965;28;20023;-71
2021/07/08 12:44:17;;;;;;;3.55;1.60;;;31.30;64.90;;;;;;5116916;28;20327;-71
2021/07/08 12:46:43;;;;;;;5.32;1.90;;;31.10;62.90;;;;;;5117114;28;20077;-71
2021/07/08 12:49:09;;;;;;;6.03;1.48;;;31.00;63.10;;;;;;5098976;28;20035;-71
2021/07/08 12:51:37;;;;;;;5.65;1.55;;;31.10;66.50;;;;;;5117144;28;20016;-71
2021/07/08 12:54:03;;;;;;;2.55;1.55;;;31.10;64.80;;;;;;5116824;28;20105;-71
2021/07/08 12:56:29;;;;;;;2.70;1.60;;;31.20;64.20;;;;;;5116790;28;20412;-71
2021/07/08 12:58:56;;;;;;;4.82;1.60;;;31.30;65.50;;;;;;5117118;28;20032;-71
2021/07/08 13:01:28;;;;;;;3.05;1.80;;;31.10;63.50;;;;;;5117089;28;20032;-71
2021/07/08 13:03:55;;;;;;;4.68;1.42;;;30.80;64.30;;;;;;5116711;28;20040;-71